Flight Track Log - Related Links

Times and Time Zones

All times are in EST time to prevent confusion due to time zone crossing. See the N30VP flight status page for this flight to view local times or setup timezone preferences in your user account.

Time Position Orientation Groundspeed Altitude Reporting Facility
EST Latitude Longitude Course Direction KTS MPH feet Rate Location/Type
Fri 11:05:02 AM 26.6828 -79.8467 90° East 282 325 7,000  Level Miami Center
Fri 11:06:02 AM 26.6781 -79.7653 94° East 282 325 7,000 200 Level Miami Center
Fri 11:07:02 AM 26.6781 -79.6675 90° East 297 342 7,400 1,750 Climbing Miami Center
Fri 11:08:00 AM 26.6667 -79.2890 90° East  Level FlightAware Approximate
Fri 11:08:02 AM 26.6794 -79.5839 89° East 291 335 10,500  Level Miami Center
Fri 11:09:00 AM 26.6667 -79.1554 90° East  Level FlightAware Approximate
Fri 11:09:02 AM 26.6794 -79.4722 90° East 316 364 13,500  Level Miami Center
Fri 11:10:02 AM 26.6769 -79.3769 92° East 331 381 15,000 1,050 Climbing Miami Center
Fri 11:11:02 AM 26.6769 -79.2606 90° East 331 381 15,600 1,550 Climbing Miami Center
Fri 11:12:02 AM 26.6744 -79.1561 92° East 347 399 18,100 2,500 Climbing Miami Center
Fri 11:13:02 AM 26.6511 -79.0464 103° East 357 411 20,600 2,150 Climbing Miami Center
Fri 11:14:02 AM 26.6192 -78.9364 108° East 362 417 22,400 1,200 Climbing Miami Center
Fri 11:15:02 AM 26.5917 -78.8175 104° East 377 434 23,000 1,100 Climbing Miami Center
Fri 11:16:02 AM 26.5533 -78.6936 109° East 401 461 24,600 1,733 Climbing Miami Center
Fri 11:18:02 AM 26.4267 -78.4575 121° Southeast 421 484 28,200 1,667 Climbing Miami Center
Fri 11:19:02 AM 26.3653 -78.3431 121° Southeast 421 484 29,600 1,350 Climbing Miami Center
Fri 11:20:02 AM 26.2975 -78.2308 124° Southeast 421 484 30,900 1,300 Climbing Miami Center
Fri 11:21:02 AM 26.2317 -78.1167 123° Southeast 431 496 32,200 1,050 Climbing Miami Center
Fri 11:22:02 AM 26.1636 -78.0047 124° Southeast 431 496 33,000 500 Climbing Miami Center
Fri 11:23:02 AM 26.0914 -77.8814 123° Southeast 454 522 33,200 650 Climbing Miami Center
Fri 11:24:02 AM 26.0189 -77.7606 124° Southeast 465 535 34,300 1,100 Climbing Miami Center
Fri 11:25:02 AM 25.9464 -77.6397 124° Southeast 465 535 35,400 950 Climbing Miami Center
Fri 11:26:02 AM 25.8822 -77.5333 124° Southeast 465 535 36,200 800 Climbing Miami Center
Fri 11:27:02 AM 25.8056 -77.4036 123° Southeast 465 535 37,000 400 Climbing Miami Center
Fri 11:28:02 AM 25.7328 -77.2808 123° Southeast 465 535 37,000  Level Miami Center
Fri 11:29:02 AM 25.6558 -77.1514 123° Southeast 476 548 37,000  Level Miami Center
Fri 11:30:02 AM 25.5806 -77.0269 124° Southeast 489 563 37,000  Level Miami Center
Fri 11:31:02 AM 25.5033 -76.9003 124° Southeast 489 563 37,000  Level Miami Center
Fri 11:32:02 AM 25.4261 -76.7758 124° Southeast 494 568 37,000  Level Miami Center
Fri 11:33:02 AM 25.3486 -76.6450 123° Southeast 494 568 37,000  Level Miami Center
Fri 11:34:02 AM 25.2711 -76.5186 124° Southeast 494 568 37,000  Level Miami Center
Fri 11:35:02 AM 25.1956 -76.3947 124° Southeast 489 563 37,000  Level Miami Center
Fri 11:36:02 AM 25.1178 -76.2667 124° Southeast 489 563 37,000  Level Miami Center
Fri 11:37:02 AM 25.0461 -76.1431 123° Southeast 494 568 37,000  Level Miami Center
Fri 11:38:02 AM 24.9681 -76.0175 124° Southeast 488 562 37,000  Level Miami Center
Fri 11:39:02 AM 24.8878 -75.8942 126° Southeast 488 562 37,000  Level Miami Center
Fri 11:40:02 AM 24.8097 -75.7667 124° Southeast 488 562 37,000  Level Miami Center
Fri 11:41:02 AM 24.7356 -75.6439 124° Southeast 488 562 37,000  Level Miami Center
Fri 11:42:02 AM 24.6572 -75.5189 125° Southeast 488 562 37,000  Level Miami Center
Fri 11:43:02 AM 24.5808 -75.3964 124° Southeast 488 562 37,000  Level Miami Center
Fri 11:44:02 AM 24.5042 -75.2692 123° Southeast 488 562 37,000  Level Miami Center
Fri 11:45:02 AM 24.4256 -75.1469 125° Southeast 488 562 37,000  Level Miami Center
Fri 11:46:02 AM 24.3553 -75.0361 125° Southeast 488 562 37,000  Level Miami Center
Fri 11:47:02 AM 24.2783 -74.9119 124° Southeast 488 562 37,000  Level Miami Center
Fri 11:48:02 AM 24.1994 -74.7881 125° Southeast 488 562 37,000  Level Miami Center
Fri 11:49:02 AM 24.1225 -74.6664 125° Southeast 488 562 37,000  Level Miami Center
Fri 11:50:02 AM 24.0433 -74.5447 125° Southeast 488 562 37,000  Level Miami Center
Fri 11:51:02 AM 23.9639 -74.4214 125° Southeast 488 562 37,000  Level Miami Center
Fri 11:52:02 AM 23.8889 -74.3022 125° Southeast 488 562 37,000  Level Miami Center
Fri 11:53:02 AM 23.8094 -74.1789 125° Southeast 488 562 37,000  Level Miami Center
Fri 11:54:02 AM 23.7300 -74.0603 126° Southeast 488 562 37,000  Level Miami Center
Fri 11:55:02 AM 23.6522 -73.9353 124° Southeast 488 562 37,000  Level Miami Center
Fri 11:56:02 AM 23.5747 -73.8169 126° Southeast 488 562 37,000  Level Miami Center
Fri 11:57:02 AM 23.4969 -73.6964 125° Southeast 488 562 37,000  Level Miami Center
Fri 11:58:02 AM 23.4192 -73.5761 125° Southeast 488 562 37,000  Level Miami Center
Fri 11:59:02 AM 23.3392 -73.4558 126° Southeast 493 567 37,000  Level Miami Center
Fri 12:00:02 PM 23.2656 -73.3336 123° Southeast 493 567 37,000  Level Miami Center
Fri 12:01:02 PM 23.1833 -73.2161 127° Southeast 488 562 37,000  Level Miami Center
Fri 12:02:02 PM 23.1072 -73.0942 124° Southeast 488 562 37,000  Level Miami Center
Fri 12:03:02 PM 23.0225 -72.9658 126° Southeast 488 562 37,000  Level Miami Center
Fri 12:04:02 PM 22.9419 -72.8464 126° Southeast 488 562 37,000  Level Miami Center
Fri 12:05:02 PM 22.8636 -72.7272 125° Southeast 494 568 37,000  Level Miami Center
Fri 12:06:02 PM 22.7831 -72.6036 125° Southeast 494 568 37,000  Level Miami Center
Fri 12:07:02 PM 22.7044 -72.4847 126° Southeast 488 562 37,000  Level Miami Center
Fri 12:08:02 PM 22.6236 -72.3639 126° Southeast 488 562 37,000  Level Miami Center
Fri 12:09:02 PM 22.5489 -72.2450 124° Southeast 488 562 37,000  Level Miami Center
Fri 12:10:02 PM 22.4658 -72.1244 127° Southeast 488 562 37,000  Level Miami Center
Fri 12:11:02 PM 22.3869 -72.0039 125° Southeast 488 562 37,000  Level Miami Center
Fri 12:12:02 PM 22.3081 -71.8856 126° Southeast 488 562 37,000  Level Miami Center
Fri 12:13:02 PM 22.2269 -71.7653 126° Southeast 488 562 37,000  Level Miami Center
Fri 12:14:02 PM 22.1456 -71.6431 126° Southeast 488 562 37,000  Level Miami Center
Fri 12:15:02 PM 22.0683 -71.5253 125° Southeast 488 562 37,000  Level Miami Center
Fri 12:16:02 PM 21.9869 -71.4056 126° Southeast 488 562 37,000  Level Miami Center
Fri 12:17:02 PM 21.9075 -71.2858 126° Southeast 488 562 37,000  Level Miami Center
Fri 12:18:02 PM 21.8281 -71.1686 126° Southeast 488 562 37,000  Level Miami Center
Fri 12:19:02 PM 21.7464 -71.0492 126° Southeast 488 562 37,000  Level Miami Center
Fri 12:20:02 PM 21.6667 -70.9278 125° Southeast 488 562 37,000  Level Miami Center
Fri 12:21:02 PM 21.5847 -70.8086 126° Southeast 488 562 37,000  Level Miami Center
Fri 12:22:02 PM 21.5119 -70.7050 127° Southeast 488 562 37,000  Level Miami Center
Fri 12:23:02 PM 21.4319 -70.5861 126° Southeast 488 562 37,000  Level Miami Center
Fri 12:24:02 PM 21.3519 -70.4697 126° Southeast 488 562 37,000  Level Miami Center
Fri 12:25:02 PM 21.2719 -70.3514 126° Southeast 488 562 37,000  Level Miami Center
Fri 12:26:02 PM 21.1900 -70.2353 127° Southeast 488 562 37,000  Level Miami Center
Fri 12:27:02 PM 21.1097 -70.1169 126° Southeast 488 562 37,000  Level Miami Center
Fri 12:28:02 PM 21.0275 -70.0011 127° Southeast 488 562 37,000  Level Miami Center
Fri 12:29:02 PM 20.9494 -69.8853 126° Southeast 488 562 37,000  Level Miami Center
Fri 12:30:02 PM 20.8669 -69.7678 127° Southeast 488 562 37,000  Level Miami Center
Fri 12:31:02 PM 20.7867 -69.6522 127° Southeast 488 562 37,000  Level Miami Center
Fri 12:32:02 PM 20.7061 -69.5347 126° Southeast 488 562 37,000  Level Miami Center
Fri 12:33:02 PM 20.6256 -69.4194 127° Southeast 488 562 37,000  Level Miami Center
Fri 12:34:02 PM 20.5450 -69.3044 127° Southeast 488 562 37,000  Level Miami Center
Fri 12:35:02 PM 20.4664 -69.1872 126° Southeast 488 562 37,000  Level Miami Center
Fri 12:36:02 PM 20.3836 -69.0706 127° Southeast 488 562 37,000  Level Miami Center
Fri 12:37:02 PM 20.3069 -68.9514 124° Southeast 488 562 37,000  Level Miami Center
Fri 12:38:02 PM 20.2506 -68.8267 116° Southeast 474 545 37,000  Level Miami Center
Fri 12:39:02 PM 20.1958 -68.6953 114° Southeast 474 545 37,000  Level Miami Center
Fri 12:40:02 PM 20.1328 -68.5667 118° Southeast 480 552 37,000  Level Miami Center
Fri 12:41:02 PM 20.0822 -68.4356 112° Southeast 480 552 37,000  Level Miami Center
Fri 12:42:02 PM 20.0211 -68.3094 117° Southeast 480 552 37,000  Level Miami Center
Fri 12:43:02 PM 19.9619 -68.1789 116° Southeast 480 552 37,000  Level Miami Center
Fri 12:44:02 PM 19.9069 -68.0481 114° Southeast 480 552 37,000  Level Miami Center
Fri 12:45:02 PM 19.8478 -67.9222 117° Southeast 480 552 37,000  Level Miami Center
Fri 12:46:02 PM 19.7944 -67.7917 113° Southeast 480 552 37,000  Level Miami Center
Fri 12:47:02 PM 19.7372 -67.6636 115° Southeast 475 547 37,000  Level Miami Center
Fri 12:48:05 PM 19.6667 -67.5333 120° Southeast 480 552 37,000  Level San Juan Center
Fri 12:49:05 PM 19.6167 -67.4167 114° Southeast 470 541 37,000 -600 Level San Juan Center
Fri 12:50:05 PM 19.5500 -67.2833 118° Southeast 480 552 35,800 -1,250 Descending San Juan Center
Fri 12:51:05 PM 19.5000 -67.1500 112° Southeast 470 541 34,500 -1,450 Descending San Juan Center
Fri 12:52:05 PM 19.4333 -67.0333 121° Southeast 460 529 32,900 -1,750 Descending San Juan Center
Fri 12:53:05 PM 19.3833 -66.9167 114° Southeast 450 518 31,000 -992 Descending San Juan Center
Fri 12:54:06 PM 19.3333 -66.8000 114° Southeast 440 506 30,900 -645 Descending San Juan Center
Fri 12:55:06 PM 19.2833 -66.6833 114° Southeast 450 518 29,700 -1,400 Descending San Juan Center
Fri 12:56:06 PM 19.2167 -66.5667 121° Southeast 450 518 28,100 -1,550 Descending San Juan Center
Fri 12:57:06 PM 19.1667 -66.4500 114° Southeast 450 518 26,600 -1,450 Descending San Juan Center
Fri 12:58:06 PM 19.1167 -66.3167 112° Southeast 440 506 25,200 -1,400 Descending San Juan Center
Fri 12:59:06 PM 19.0500 -66.2000 121° Southeast 420 483 23,800 -1,350 Descending San Juan Center
Fri 01:00:06 PM 19.0000 -66.0833 114° Southeast 410 472 22,500 -1,392 Descending San Juan Center
Fri 01:02:07 PM 18.9167 -65.8833 114° Southeast 380 437 19,600 -1,591 Descending San Juan Center
Fri 01:03:07 PM 18.8667 -65.7667 114° Southeast 390 449 17,700 -1,700 Descending San Juan Center
Fri 01:04:07 PM 18.8167 -65.6833 122° Southeast 370 426 16,200 -1,600 Descending San Juan Center
Fri 01:05:07 PM 18.7667 -65.5833 118° Southeast 350 403 14,500 -1,650 Descending San Juan Center
Fri 01:06:07 PM 18.7333 -65.5000 113° Southeast 350 403 12,900 -1,600 Descending San Juan Center
Fri 01:07:07 PM 18.6833 -65.4000 118° Southeast 340 391 11,300 -1,350 Descending San Juan Center
Fri 01:08:07 PM 18.6333 -65.3167 122° Southeast 330 380 10,200 -1,450 Descending San Juan Center
Fri 01:09:07 PM 18.5667 -65.2500 137° Southeast 310 357 8,400 -2,281 Descending San Juan Center
Fri 01:10:08 PM 18.5000 -65.2167 155° Southeast 270 311 5,600 -2,678 Descending San Juan Center
Fri 01:11:08 PM 18.4333 -65.2000 167° South 270 311 3,000 -1,300 Descending San Juan Center
Fri 01:12:08 PM 18.3667 -65.1667 155° Southeast 250 288 3,000 -100 Level San Juan Center
Fri 01:13:08 PM 18.3333 -65.1167 125° Southeast 190 219 2,800 -500 Descending San Juan Center
Fri 01:14:08 PM 18.3333 -65.0833 90° East 160 184 2,000 -850 Descending San Juan Center
Fri 01:15:08 PM 18.3167 -65.0333 109° East 140 161 1,100 -800 Descending San Juan Center
Fri 01:16:08 PM 18.3333 -64.9833 71° East 130 150 400 -700 Descending San Juan Center

Login

Don't have an account? Register now (free) for customized features, flight alerts, and more!